Time;durP1;ratioP1;P1;durP2;ratioP2;P2;SDS_P1;SDS_P2;PMS_P1;PMS_P2;Temp;Humidity;BMP_temperature;BMP_pressure;BME280_temperature;BME280_humidity;BME280_pressure;Samples;Min_cycle;Max_cycle;Signal;HPM_P1;HPM_P2
2021/11/04 00:00:59;;;;;;;63.00;31.48;;;7.00;99.90;;;8.18;100.00;99173.59;4960213;29;20037;-80
2021/11/04 00:03:25;;;;;;;75.18;32.05;;;7.00;99.90;;;8.19;100.00;99177.97;4957869;28;20023;-81
2021/11/04 00:05:51;;;;;;;66.30;32.42;;;7.00;99.90;;;8.20;100.00;99171.22;4977135;28;20147;-81
2021/11/04 00:08:17;;;;;;;71.35;31.20;;;7.00;99.90;;;8.21;100.00;99180.38;4966164;28;20035;-82
2021/11/04 00:10:43;;;;;;;70.32;32.63;;;7.00;99.90;;;8.20;100.00;99173.19;4983803;28;20073;-83
2021/11/04 00:13:09;;;;;;;60.42;30.23;;;7.00;99.90;;;8.20;100.00;99185.13;4982719;28;20039;-84
2021/11/04 00:15:34;;;;;;;70.60;32.08;;;7.00;99.90;;;8.23;100.00;99180.78;4982883;28;20045;-83
2021/11/04 00:18:01;;;;;;;68.70;31.70;;;7.10;99.90;;;8.22;100.00;99179.22;4981643;28;20549;-82
2021/11/04 00:20:28;;;;;;;71.97;33.85;;;7.00;99.90;;;8.21;100.00;99166.47;4982671;28;20035;-81
2021/11/04 00:22:55;;;;;;;63.40;30.38;;;7.00;99.90;;;8.22;100.00;99177.19;4981392;28;20486;-81
2021/11/04 00:25:21;;;;;;;67.20;31.38;;;7.00;99.90;;;8.22;100.00;99177.19;4981695;28;20023;-82
2021/11/04 00:27:49;;;;;;;74.18;33.72;;;7.00;99.90;;;8.20;100.00;99178.75;4981829;28;20031;-81
2021/11/04 00:30:18;;;;;;;72.00;33.70;;;7.00;99.90;;;8.20;100.00;99181.53;4981451;28;20019;-80
2021/11/04 00:32:52;;;;;;;67.90;33.15;;;7.00;99.90;;;8.21;100.00;99188.72;4981133;28;20034;-82
2021/11/04 00:35:20;;;;;;;72.60;30.63;;;7.00;99.90;;;8.19;100.00;99182.72;4982100;28;20361;-81
2021/11/04 00:37:46;;;;;;;70.50;32.67;;;7.00;99.90;;;8.18;100.00;99189.47;4963585;28;20045;-80
2021/11/04 00:40:19;;;;;;;67.82;30.63;;;7.00;99.90;;;8.16;100.00;99184.28;4979594;28;20042;-81
2021/11/04 00:42:45;;;;;;;66.60;29.80;;;7.00;99.90;;;8.17;100.00;99182.31;4980280;28;20147;-80
2021/11/04 00:45:12;;;;;;;73.53;32.05;;;7.00;99.90;;;8.16;100.00;99186.25;4981496;28;20047;-79
2021/11/04 00:47:38;;;;;;;72.97;33.17;;;7.00;99.90;;;8.18;100.00;99186.69;4981730;28;20042;-80
2021/11/04 00:50:07;;;;;;;70.40;30.55;;;7.00;99.90;;;8.21;100.00;99191.50;4980445;28;20027;-80
2021/11/04 00:52:34;;;;;;;69.50;31.05;;;7.00;99.90;;;8.20;100.00;99190.69;4996659;28;20108;-81
2021/11/04 00:55:00;;;;;;;72.90;32.72;;;7.00;99.90;;;8.23;100.00;99191.91;4982082;28;20035;-80
2021/11/04 00:57:26;;;;;;;65.80;30.60;;;7.00;99.90;;;8.22;100.00;99185.53;4981493;28;20363;-82
2021/11/04 00:59:52;;;;;;;61.20;30.45;;;7.00;99.90;;;8.24;100.00;99187.97;4980202;28;20065;-83
2021/11/04 01:02:18;;;;;;;69.53;31.27;;;7.00;99.90;;;8.21;100.00;99189.53;4980883;28;20035;-82
2021/11/04 01:04:43;;;;;;;77.18;33.03;;;7.10;99.90;;;8.23;100.00;99187.16;4984881;28;20018;-80
2021/11/04 01:07:09;;;;;;;74.15;33.72;;;7.00;99.90;;;8.21;100.00;99192.31;4992658;28;20126;-80
2021/11/04 01:09:35;;;;;;;72.38;32.40;;;7.00;99.90;;;8.17;100.00;99188.66;4978333;28;20114;-82
2021/11/04 01:12:02;;;;;;;70.50;30.92;;;7.00;99.90;;;8.17;100.00;99185.09;4959788;29;20216;-80
2021/11/04 01:14:27;;;;;;;69.57;31.23;;;7.00;99.90;;;8.16;100.00;99178.72;4959672;28;20042;-81
2021/11/04 01:16:53;;;;;;;71.65;32.97;;;7.00;99.90;;;8.15;100.00;99177.13;4960187;28;20023;-81
2021/11/04 01:19:20;;;;;;;76.93;34.22;;;7.00;99.90;;;8.16;100.00;99181.50;4959760;28;20023;-81
2021/11/04 01:21:46;;;;;;;79.90;34.53;;;7.00;99.90;;;8.15;100.00;99174.34;4958239;29;20035;-81
2021/11/04 01:24:12;;;;;;;72.50;33.20;;;7.00;99.90;;;8.16;100.00;99181.50;4960684;29;20031;-80
2021/11/04 01:26:38;;;;;;;68.80;32.35;;;6.90;99.90;;;8.14;100.00;99183.88;4974969;28;20035;-81
2021/11/04 01:29:04;;;;;;;80.40;33.55;;;6.90;99.90;;;8.13;100.00;99178.66;4959225;28;20027;-80
2021/11/04 01:31:30;;;;;;;67.97;30.85;;;6.90;99.90;;;8.12;100.00;99169.53;4959852;29;20050;-82
2021/11/04 01:33:56;;;;;;;73.43;29.60;;;6.90;99.90;;;8.12;100.00;99140.94;4959119;29;20035;-79
2021/11/04 01:36:21;;;;;;;79.00;32.58;;;6.90;99.90;;;8.12;100.00;99152.88;4959774;29;20115;-80
2021/11/04 01:38:48;;;;;;;74.82;33.47;;;6.90;99.90;;;8.13;100.00;99157.22;4958330;29;20035;-79
2021/11/04 01:41:17;;;;;;;62.47;29.30;;;6.90;99.90;;;8.14;100.00;99158.84;4958762;29;20031;-79
2021/11/04 01:43:44;;;;;;;68.88;31.80;;;7.00;99.90;;;8.15;100.00;99162.44;4959428;29;20038;-81
2021/11/04 01:46:12;;;;;;;71.82;31.40;;;7.00;99.90;;;8.16;100.00;99164.00;4958601;28;20027;-80
2021/11/04 01:48:40;;;;;;;78.22;33.22;;;7.00;99.90;;;8.13;100.00;99160.00;4959572;29;20411;-82
2021/11/04 01:51:06;;;;;;;81.82;35.78;;;7.00;99.90;;;8.12;100.00;99164.00;4973950;28;20463;-79
2021/11/04 01:53:32;;;;;;;72.18;32.70;;;7.00;99.90;;;8.14;100.00;99169.16;4973959;28;20118;-79
2021/11/04 01:55:58;;;;;;;72.70;33.90;;;7.00;99.90;;;8.15;100.00;99165.22;4958252;28;20051;-80
2021/11/04 01:58:24;;;;;;;77.82;33.20;;;7.00;99.90;;;8.18;100.00;99165.25;4960748;29;20123;-81
2021/11/04 02:00:54;;;;;;;83.43;34.33;;;7.00;99.90;;;8.16;100.00;99175.13;4975091;28;20039;-81
2021/11/04 02:03:57;;;;;;;74.82;32.47;;;7.00;99.90;;;8.19;100.00;99172.41;4958434;28;20150;-79
2021/11/04 02:07:45;;;;;;;76.18;33.75;;;7.00;99.90;;;8.19;100.00;99171.59;4959129;29;20023;-81
2021/11/04 02:10:30;;;;;;;84.22;35.95;;;7.00;99.90;;;8.15;100.00;99176.31;4919166;29;20054;-79
2021/11/04 02:13:34;;;;;;;80.72;32.33;;;7.00;99.90;;;8.16;100.00;99183.47;4919076;29;20033;-80
2021/11/04 02:16:04;;;;;;;71.70;32.97;;;7.00;99.90;;;8.16;100.00;99189.84;4949634;28;20030;-80
2021/11/04 02:18:36;;;;;;;73.20;32.85;;;7.00;99.90;;;8.15;100.00;99185.47;4977574;28;20501;-80
2021/11/04 02:21:47;;;;;;;76.57;33.78;;;7.00;99.90;;;8.13;100.00;99184.22;4961515;28;20113;-80
2021/11/04 02:24:34;;;;;;;75.05;32.72;;;6.90;99.90;;;8.10;100.00;99179.41;4978874;28;20035;-81
2021/11/04 02:27:02;;;;;;;73.05;32.70;;;6.90;99.90;;;8.12;100.00;99172.31;4978694;28;20090;-81
2021/11/04 02:29:31;;;;;;;67.03;32.75;;;6.90;99.90;;;8.10;100.00;99174.66;4945651;28;20052;-81
2021/11/04 02:31:59;;;;;;;75.03;34.78;;;6.90;99.90;;;8.10;100.00;99157.97;4977588;28;20041;-82
2021/11/04 02:34:28;;;;;;;76.68;33.70;;;7.00;99.90;;;8.11;100.00;99161.56;4961321;28;20054;-80
2021/11/04 02:36:57;;;;;;;75.25;34.88;;;6.90;99.90;;;8.11;100.00;99164.34;4979584;28;20034;-80
2021/11/04 02:39:28;;;;;;;79.10;33.83;;;6.90;99.90;;;8.09;100.00;99155.59;4976911;28;20031;-81
2021/11/04 02:41:55;;;;;;;71.38;31.80;;;7.00;99.90;;;8.09;100.00;99166.72;4962618;28;20049;-80
2021/11/04 02:44:23;;;;;;;76.13;33.50;;;7.00;99.90;;;8.11;100.00;99159.59;4978052;28;20041;-81
2021/11/04 02:46:49;;;;;;;72.72;32.35;;;6.90;99.90;;;8.11;100.00;99176.28;4978264;28;20030;-80
2021/11/04 02:49:15;;;;;;;70.80;32.67;;;6.90;99.90;;;8.12;100.00;99175.09;4977418;28;20038;-79
2021/11/04 02:51:41;;;;;;;72.68;33.25;;;6.90;99.90;;;8.14;100.00;99175.53;4993644;28;20030;-81
2021/11/04 02:54:09;;;;;;;73.22;33.78;;;6.90;99.90;;;8.11;100.00;99175.47;4978785;28;20438;-81
2021/11/04 02:56:56;;;;;;;77.28;34.08;;;6.90;99.90;;;8.10;100.00;99171.06;4977611;28;20038;-82
2021/11/04 02:59:26;;;;;;;71.75;33.03;;;6.90;99.90;;;8.11;100.00;99176.28;4961619;28;20494;-80
2021/11/04 03:02:00;;;;;;;75.15;31.48;;;6.90;99.90;;;8.10;100.00;99176.63;4978410;28;20069;-81
2021/11/04 03:04:27;;;;;;;84.25;34.10;;;6.90;99.90;;;8.11;100.00;99186.59;4976869;28;20038;-81
2021/11/04 03:06:53;;;;;;;81.00;33.47;;;6.90;99.90;;;8.11;100.00;99183.81;4978485;28;20046;-81
2021/11/04 03:09:21;;;;;;;74.50;35.22;;;6.90;99.90;;;8.12;100.00;99188.22;4965946;28;20388;-80
2021/11/04 03:11:47;;;;;;;82.90;35.92;;;6.90;99.90;;;8.08;100.00;99195.69;4973881;28;20035;-81
2021/11/04 03:14:16;;;;;;;79.63;34.90;;;6.90;99.90;;;8.06;100.00;99193.28;4958259;29;20152;-79
2021/11/04 03:16:48;;;;;;;82.88;33.63;;;6.90;99.90;;;8.05;100.00;99197.25;4957057;28;20040;-80
2021/11/04 03:19:18;;;;;;;84.47;35.03;;;6.90;99.90;;;8.05;100.00;99196.44;4958789;29;20075;-82
2021/11/04 03:21:49;;;;;;;90.32;39.08;;;6.90;99.90;;;8.03;100.00;99198.81;4958875;29;20038;-81
2021/11/04 03:24:20;;;;;;;83.43;35.08;;;6.80;99.90;;;8.02;100.00;99203.56;4958380;28;20050;-82
2021/11/04 03:27:05;;;;;;;83.93;35.80;;;6.80;99.90;;;8.00;100.00;99205.91;4960338;28;20062;-82
2021/11/04 03:29:37;;;;;;;82.68;34.03;;;6.80;99.90;;;8.01;100.00;99207.50;4957848;28;20035;-82
2021/11/04 03:32:15;;;;;;;80.50;35.25;;;6.80;99.90;;;7.99;100.00;99207.09;4957552;28;20032;-82
2021/11/04 03:34:44;;;;;;;79.60;34.40;;;6.80;99.90;;;7.99;100.00;99204.31;4958485;29;20566;-82
2021/11/04 03:37:12;;;;;;;79.68;34.05;;;6.80;99.90;;;7.93;100.00;99203.00;4959636;29;20042;-81
2021/11/04 03:39:43;;;;;;;85.88;34.92;;;6.80;99.90;;;7.93;100.00;99197.44;4962990;28;20114;-83
2021/11/04 03:42:12;;;;;;;81.35;35.22;;;6.80;99.90;;;7.97;100.00;99195.53;4948032;29;20097;-82
2021/11/04 03:44:43;;;;;;;83.82;35.22;;;6.80;99.90;;;7.95;100.00;99195.94;4964205;29;20027;-79
2021/11/04 03:47:12;;;;;;;83.13;36.05;;;6.80;99.90;;;8.00;100.00;99202.31;4978073;28;20121;-79
2021/11/04 03:49:40;;;;;;;82.72;33.67;;;6.80;99.90;;;7.96;100.00;99194.72;4962211;29;20081;-79
2021/11/04 03:52:06;;;;;;;79.85;35.38;;;6.80;99.90;;;7.93;100.00;99192.69;4962105;29;20050;-80
2021/11/04 03:54:33;;;;;;;83.43;34.42;;;6.80;99.90;;;7.92;100.00;99201.44;4961902;29;20130;-80
2021/11/04 03:57:00;;;;;;;83.40;35.85;;;6.80;99.90;;;7.88;100.00;99201.38;4962714;29;20038;-79
2021/11/04 03:59:27;;;;;;;82.57;33.08;;;6.70;99.90;;;7.86;100.00;99198.19;4961800;28;20058;-79
2021/11/04 04:01:54;;;;;;;74.20;31.88;;;6.70;99.90;;;7.83;100.00;99198.13;4962095;29;20035;-79
2021/11/04 04:04:21;;;;;;;80.15;33.42;;;6.70;99.90;;;7.81;100.00;99211.56;4962762;28;20153;-80
2021/11/04 04:06:53;;;;;;;76.07;31.77;;;6.70;99.90;;;7.79;100.00;99205.59;4962163;29;20103;-80
2021/11/04 04:09:23;;;;;;;82.10;33.17;;;6.60;99.90;;;7.79;100.00;99200.03;4964277;28;20038;-79
2021/11/04 04:11:53;;;;;;;82.50;36.35;;;6.60;99.90;;;7.79;100.00;99205.59;4979956;28;20054;-80
2021/11/04 04:14:20;;;;;;;82.53;33.40;;;6.60;99.90;;;7.80;100.00;99212.78;4979903;28;20441;-83
2021/11/04 04:16:47;;;;;;;76.22;31.88;;;6.60;99.90;;;7.78;100.00;99213.13;4979860;28;20054;-81
2021/11/04 04:19:14;;;;;;;75.72;30.50;;;6.60;99.90;;;7.79;100.00;99223.09;4963422;28;20441;-81
2021/11/04 04:21:40;;;;;;;75.35;32.42;;;6.60;99.90;;;7.78;100.00;99218.69;4979698;28;20031;-79
2021/11/04 04:24:06;;;;;;;75.10;31.45;;;6.60;99.90;;;7.77;100.00;99219.84;4979054;28;20050;-80
2021/11/04 04:26:32;;;;;;;77.45;34.08;;;6.60;99.90;;;7.83;100.00;99214.81;4980584;28;20545;-83
2021/11/04 04:28:59;;;;;;;77.82;34.22;;;6.70;99.90;;;7.79;100.00;99225.88;4980301;28;20041;-81
2021/11/04 04:31:25;;;;;;;66.72;30.10;;;6.60;99.90;;;7.78;100.00;99232.59;4980003;28;20027;-81
2021/11/04 04:33:51;;;;;;;74.50;32.05;;;6.60;99.90;;;7.79;100.00;99234.19;4980855;28;20030;-80
2021/11/04 04:36:18;;;;;;;78.00;34.22;;;6.70;99.90;;;7.79;100.00;99241.72;4981021;28;20050;-82
2021/11/04 04:38:43;;;;;;;79.22;34.15;;;6.60;99.90;;;7.82;100.00;99247.34;4981384;28;20057;-81
2021/11/04 04:41:09;;;;;;;69.60;32.08;;;6.70;99.90;;;7.77;100.00;99256.00;4979616;28;20023;-80
2021/11/04 04:43:35;;;;;;;84.35;36.38;;;6.60;99.90;;;7.73;100.00;99262.69;4979082;28;20081;-81
2021/11/04 04:46:01;;;;;;;77.32;32.88;;;6.60;99.90;;;7.75;100.00;99263.09;4980648;28;20038;-81
2021/11/04 04:48:27;;;;;;;84.70;36.08;;;6.60;99.90;;;7.72;100.00;99275.78;4980901;28;20027;-81
2021/11/04 04:50:53;;;;;;;81.60;33.85;;;6.60;99.90;;;7.72;100.00;99274.97;4980283;28;20058;-81
2021/11/04 04:53:19;;;;;;;85.68;33.75;;;6.60;99.90;;;7.70;100.00;99277.31;4980664;28;20071;-81
2021/11/04 04:55:45;;;;;;;75.15;32.35;;;6.60;99.90;;;7.76;100.00;99273.88;4981038;28;20032;-82
2021/11/04 04:58:10;;;;;;;83.72;35.95;;;6.60;99.90;;;7.76;100.00;99273.88;4982223;28;20498;-81
2021/11/04 05:00:36;;;;;;;78.32;34.05;;;6.60;99.90;;;7.69;100.00;99276.53;4982033;28;20081;-82
2021/11/04 05:03:05;;;;;;;77.53;33.38;;;6.60;99.90;;;7.72;100.00;99280.53;4979848;28;20038;-83
2021/11/04 05:05:31;;;;;;;83.15;35.83;;;6.60;99.90;;;7.72;100.00;99280.53;4991098;28;20038;-80
2021/11/04 05:07:57;;;;;;;87.57;34.85;;;6.60;99.90;;;7.71;100.00;99278.91;4997185;28;20035;-79
2021/11/04 05:10:23;;;;;;;74.43;32.22;;;6.60;99.90;;;7.73;100.00;99279.34;4979359;28;20043;-78
2021/11/04 05:12:49;;;;;;;79.03;32.60;;;6.60;99.90;;;7.72;100.00;99280.53;4970096;28;20054;-82
2021/11/04 05:15:15;;;;;;;79.60;34.10;;;6.60;99.90;;;7.71;100.00;99282.50;4977308;28;20027;-82
2021/11/04 05:17:41;;;;;;;86.10;36.28;;;6.60;99.90;;;7.75;100.00;99283.38;4976209;28;20110;-80
2021/11/04 05:20:09;;;;;;;85.30;36.15;;;6.60;99.90;;;7.76;100.00;99287.75;4959667;29;20027;-80
2021/11/04 05:22:35;;;;;;;79.78;33.50;;;6.60;99.90;;;7.75;100.00;99271.44;4959077;28;20118;-81
2021/11/04 05:25:02;;;;;;;81.88;33.47;;;6.60;99.90;;;7.76;100.00;99276.63;4975009;28;20123;-80
2021/11/04 05:27:29;;;;;;;85.75;34.75;;;6.60;99.90;;;7.77;100.00;99281.00;4959987;29;20043;-81
2021/11/04 05:29:56;;;;;;;78.55;33.88;;;6.60;99.90;;;7.76;100.00;99282.19;4959304;29;20023;-81
2021/11/04 05:32:22;;;;;;;80.38;34.05;;;6.60;99.90;;;7.75;100.00;99283.38;4960222;29;20094;-81
2021/11/04 05:34:50;;;;;;;73.18;33.03;;;6.60;99.90;;;7.73;100.00;99280.16;4960775;29;20031;-80
2021/11/04 05:37:16;;;;;;;82.70;34.00;;;6.60;99.90;;;7.76;100.00;99275.84;4974056;28;20027;-81
2021/11/04 05:39:42;;;;;;;93.95;35.95;;;6.60;99.90;;;7.78;100.00;99288.19;4959973;29;20038;-79
2021/11/04 05:42:09;;;;;;;93.07;37.75;;;6.60;99.90;;;7.76;100.00;99284.97;4974731;28;20031;-80
2021/11/04 05:44:36;;;;;;;94.97;39.35;;;6.60;99.90;;;7.78;100.00;99279.84;4959406;28;20038;-81
2021/11/04 05:47:06;;;;;;;92.10;36.70;;;6.60;99.90;;;7.74;100.00;99281.75;4958885;28;20390;-82
2021/11/04 05:49:33;;;;;;;91.68;37.13;;;6.60;99.90;;;7.74;100.00;99281.75;4957457;28;20039;-80
2021/11/04 05:51:59;;;;;;;92.95;38.53;;;6.60;99.90;;;7.79;100.00;99286.19;4958469;29;20042;-81
2021/11/04 05:54:25;;;;;;;89.18;35.97;;;6.60;99.90;;;7.69;100.00;99282.06;4957860;28;20054;-82
2021/11/04 05:56:51;;;;;;;90.55;37.42;;;6.60;99.90;;;7.71;100.00;99285.28;4958884;29;20403;-81
2021/11/04 05:59:17;;;;;;;87.68;36.53;;;6.50;99.90;;;7.66;100.00;99284.78;4958630;29;20035;-80
2021/11/04 06:01:44;;;;;;;105.43;39.38;;;6.50;99.90;;;7.70;100.00;99280.91;4972528;28;20112;-80
2021/11/04 06:04:11;;;;;;;92.82;38.95;;;6.50;99.90;;;7.69;100.00;99279.28;4959075;29;20050;-82
2021/11/04 06:06:37;;;;;;;98.40;38.03;;;6.50;99.90;;;7.68;100.00;99274.09;4958251;29;20023;-81
2021/11/04 06:09:04;;;;;;;97.72;39.40;;;6.50;99.90;;;7.68;100.00;99280.47;4968107;28;20035;-81
2021/11/04 06:11:29;;;;;;;96.85;38.58;;;6.50;99.90;;;7.68;100.00;99285.22;4977528;28;20023;-81
2021/11/04 06:13:56;;;;;;;96.10;37.00;;;6.50;99.90;;;7.63;100.00;99274.41;4977555;28;20054;-81
2021/11/04 06:16:21;;;;;;;95.22;37.92;;;6.50;99.90;;;7.63;100.00;99278.00;4977846;28;20027;-81
2021/11/04 06:18:48;;;;;;;89.60;34.90;;;6.50;99.90;;;7.60;100.00;99281.53;4976096;28;20034;-81
2021/11/04 06:21:14;;;;;;;101.85;37.00;;;6.50;99.90;;;7.61;100.00;99285.13;4977949;28;20077;-81
2021/11/04 06:23:43;;;;;;;83.43;34.88;;;6.50;99.90;;;7.61;100.00;99280.34;4977115;28;20043;-82
2021/11/04 06:26:09;;;;;;;88.57;34.45;;;6.50;99.90;;;7.57;100.00;99279.50;4976037;28;20027;-81
2021/11/04 06:28:35;;;;;;;89.55;36.65;;;6.40;99.90;;;7.53;100.00;99280.59;4992184;28;20030;-82
2021/11/04 06:31:02;;;;;;;86.00;34.85;;;6.40;99.90;;;7.50;100.00;99279.38;4978521;28;20442;-79
2021/11/04 06:33:28;;;;;;;88.63;34.30;;;6.40;99.90;;;7.51;100.00;99283.75;4978598;28;20184;-81
2021/11/04 06:35:54;;;;;;;89.40;36.20;;;6.40;99.90;;;7.47;100.00;99285.66;4994244;28;20078;-82
2021/11/04 06:38:21;;;;;;;86.20;35.38;;;6.30;99.90;;;7.50;100.00;99281.34;4977668;28;20031;-80
2021/11/04 06:40:49;;;;;;;94.32;34.13;;;6.40;99.90;;;7.52;100.00;99287.31;4962309;28;20042;-81
2021/11/04 06:43:15;;;;;;;93.97;35.25;;;6.40;99.90;;;7.50;100.00;99293.25;4977155;28;20034;-80
2021/11/04 06:45:49;;;;;;;89.15;34.45;;;6.40;99.90;;;7.48;100.00;99292.03;4979025;28;20398;-80
2021/11/04 06:48:38;;;;;;;87.13;34.03;;;6.30;99.90;;;7.47;100.00;99299.56;4979122;28;20038;-83
2021/11/04 06:51:12;;;;;;;86.20;33.03;;;6.30;99.90;;;7.49;100.00;99299.97;4979881;28;20102;-78
2021/11/04 06:54:02;;;;;;;85.43;34.05;;;6.40;99.90;;;7.52;100.00;99306.75;4967236;28;20051;-81
2021/11/04 06:56:42;;;;;;;83.75;33.88;;;6.40;99.90;;;7.49;100.00;99301.94;4977617;28;20061;-82
2021/11/04 06:59:20;;;;;;;90.20;34.80;;;6.30;99.90;;;7.46;100.00;99299.91;4980478;28;20035;-82
2021/11/04 07:02:00;;;;;;;80.35;32.35;;;6.30;99.90;;;7.40;100.00;99305.78;4981704;28;20423;-82
2021/11/04 07:04:39;;;;;;;75.55;32.20;;;6.30;99.90;;;7.38;100.00;99307.34;4945467;28;20042;-81
2021/11/04 07:07:08;;;;;;;84.32;32.90;;;6.30;99.90;;;7.42;100.00;99313.72;4981170;28;20034;-81
2021/11/04 07:09:40;;;;;;;83.93;32.35;;;6.30;99.90;;;7.43;100.00;99307.81;4964643;28;20035;-82
2021/11/04 07:12:10;;;;;;;78.07;32.75;;;6.30;99.90;;;7.47;100.00;99315.41;4960117;29;20039;-79
2021/11/04 07:14:41;;;;;;;76.65;31.58;;;6.30;99.90;;;7.49;100.00;99311.09;4962763;28;20115;-82
2021/11/04 07:17:14;;;;;;;81.50;31.08;;;6.30;99.90;;;7.54;100.00;99315.56;4932873;29;20054;-82
2021/11/04 07:19:46;;;;;;;76.50;31.45;;;6.40;99.90;;;7.61;100.00;99318.47;4965004;29;20512;-80
2021/11/04 07:22:36;;;;;;;77.95;31.65;;;6.40;99.90;;;7.62;100.00;99320.84;4948319;29;20505;-82
2021/11/04 07:25:16;;;;;;;85.85;34.38;;;6.50;99.90;;;7.67;100.00;99326.13;4966498;28;20038;-81
2021/11/04 07:27:59;;;;;;;82.28;32.03;;;6.50;99.90;;;7.69;100.00;99318.19;4962866;29;20039;-81
2021/11/04 07:30:30;;;;;;;82.10;31.25;;;6.50;99.90;;;7.64;100.00;99329.59;4964520;28;20023;-80
2021/11/04 07:33:05;;;;;;;78.25;32.05;;;6.50;99.90;;;7.58;100.00;99336.66;4963984;28;20043;-79
2021/11/04 07:35:39;;;;;;;79.87;31.33;;;6.40;99.90;;;7.60;100.00;99342.66;4933250;29;20043;-79
2021/11/04 07:38:22;;;;;;;75.80;28.92;;;6.40;99.90;;;7.63;100.00;99336.38;4964044;29;20031;-80
2021/11/04 07:40:49;;;;;;;66.50;27.50;;;6.50;99.90;;;7.66;100.00;99343.94;4950046;29;20094;-80
2021/11/04 07:43:18;;;;;;;69.60;30.20;;;6.50;99.90;;;7.64;100.00;99349.06;4966367;28;20034;-81
2021/11/04 07:45:45;;;;;;;64.20;28.42;;;6.50;99.90;;;7.68;100.00;99349.94;4965918;29;20481;-79
2021/11/04 07:48:10;;;;;;;70.40;29.55;;;6.50;99.90;;;7.69;100.00;99353.53;4978572;28;20038;-81
2021/11/04 07:50:36;;;;;;;62.13;27.75;;;6.50;99.90;;;7.71;100.00;99356.72;4985547;28;20091;-79
2021/11/04 07:53:03;;;;;;;63.10;28.50;;;6.50;99.90;;;7.66;100.00;99360.63;4985188;28;20027;-82
2021/11/04 07:55:29;;;;;;;73.05;32.15;;;6.50;99.90;;;7.59;100.00;99357.72;4986349;28;20035;-81
2021/11/04 07:57:55;;;;;;;57.78;27.48;;;6.40;99.90;;;7.60;100.00;99372.41;4985666;28;20027;-80
2021/11/04 08:00:28;;;;;;;61.53;26.85;;;6.40;99.90;;;7.59;100.00;99379.94;4984721;28;20065;-81
2021/11/04 08:02:54;;;;;;;62.80;27.73;;;6.40;99.90;;;7.58;100.00;99380.31;4983812;28;20030;-82
2021/11/04 08:05:20;;;;;;;71.05;29.00;;;6.40;99.90;;;7.59;100.00;99385.50;4985295;28;20169;-82
2021/11/04 08:07:47;;;;;;;75.38;30.83;;;6.50;99.90;;;7.66;100.00;99388.41;4958756;28;20508;-81
2021/11/04 08:10:17;;;;;;;70.85;31.52;;;6.50;99.90;;;7.66;100.00;99396.75;4983970;28;20022;-81
2021/11/04 08:12:45;;;;;;;77.97;34.15;;;6.50;99.90;;;7.70;100.00;99399.59;4971476;28;20111;-82
2021/11/04 08:15:14;;;;;;;86.03;35.80;;;6.50;99.90;;;7.74;100.00;99406.81;4986102;28;20042;-81
2021/11/04 08:17:40;;;;;;;84.68;35.38;;;6.60;99.90;;;7.68;100.00;99408.28;4984804;28;20062;-81
2021/11/04 08:20:10;;;;;;;81.93;35.13;;;6.50;99.90;;;7.65;100.00;99411.00;4983872;28;20086;-79
2021/11/04 08:22:38;;;;;;;80.57;32.15;;;6.50;99.90;;;7.69;100.00;99401.56;4983526;28;20027;-81
2021/11/04 08:25:07;;;;;;;92.10;35.60;;;6.50;99.90;;;7.73;100.00;99408.00;4982030;28;20054;-80
2021/11/04 08:27:33;;;;;;;89.20;35.67;;;6.60;99.90;;;7.79;100.00;99412.09;4997272;28;20441;-83
2021/11/04 08:29:59;;;;;;;93.15;36.97;;;6.60;99.90;;;7.88;100.00;99404.31;4981564;28;20172;-80
2021/11/04 08:32:26;;;;;;;95.80;38.50;;;6.70;99.90;;;7.89;100.00;99405.09;4980890;28;20044;-81
2021/11/04 08:34:52;;;;;;;89.00;37.90;;;6.70;99.90;;;7.91;100.00;99402.75;4981425;28;20074;-81
2021/11/04 08:37:18;;;;;;;109.43;41.60;;;6.70;99.90;;;7.91;100.00;99405.53;4984269;28;20077;-81
2021/11/04 08:39:46;;;;;;;98.95;40.35;;;6.80;99.90;;;8.01;100.00;99409.66;4983433;28;20031;-81
2021/11/04 08:42:15;;;;;;;97.45;39.47;;;6.80;99.90;;;8.04;100.00;99411.72;4985802;28;20368;-82
2021/11/04 08:44:43;;;;;;;95.47;39.38;;;6.80;99.90;;;8.03;100.00;99416.47;4985303;28;20023;-82
2021/11/04 08:47:10;;;;;;;94.72;39.55;;;6.80;99.90;;;8.03;100.00;99419.25;4985986;28;20041;-81
2021/11/04 08:49:36;;;;;;;92.22;38.47;;;6.90;99.90;;;8.03;100.00;99424.81;5000214;23;20038;-81
2021/11/04 08:52:05;;;;;;;92.63;37.90;;;6.90;99.90;;;7.96;100.00;99427.47;5012800;28;20053;-79
2021/11/04 08:54:32;;;;;;;92.93;39.22;;;6.80;99.90;;;7.94;100.00;99430.63;5017423;28;20049;-83
2021/11/04 08:56:58;;;;;;;98.00;40.10;;;6.80;99.90;;;7.98;100.00;99430.69;4999526;28;20030;-84
2021/11/04 08:59:24;;;;;;;89.00;37.42;;;6.80;99.90;;;7.95;100.00;99429.44;4995883;28;20030;-85
2021/11/04 09:01:50;;;;;;;87.32;35.47;;;6.80;99.90;;;7.96;100.00;99441.38;4978503;28;20069;-82
2021/11/04 09:04:16;;;;;;;85.15;35.70;;;6.80;99.90;;;7.75;100.00;99433.44;4979773;28;20043;-83
2021/11/04 09:06:42;;;;;;;85.70;33.20;;;6.80;99.90;;;7.90;100.00;99437.28;4978456;28;20026;-83
2021/11/04 09:09:08;;;;;;;76.07;33.35;;;6.80;99.90;;;7.94;100.00;99433.41;4987738;28;20037;-85
2021/11/04 09:11:36;;;;;;;94.40;34.50;;;6.80;99.90;;;8.07;100.00;99436.00;4978769;28;20027;-84
2021/11/04 09:14:04;;;;;;;81.30;31.60;;;6.90;99.90;;;8.16;100.00;99445.69;4977730;28;20042;-84
2021/11/04 09:16:30;;;;;;;86.68;34.53;;;7.00;99.90;;;8.21;100.00;99433.47;4976238;28;20034;-83
2021/11/04 09:18:56;;;;;;;72.97;30.02;;;7.00;99.90;;;8.33;100.00;99438.88;4976122;28;20037;-81
2021/11/04 09:21:24;;;;;;;73.53;30.45;;;7.10;99.90;;;8.46;100.00;99437.50;4978664;28;20529;-82
2021/11/04 09:23:50;;;;;;;75.93;31.00;;;7.20;99.90;;;8.52;100.00;99444.34;4977963;28;20027;-82
2021/11/04 09:26:17;;;;;;;74.68;32.38;;;7.30;99.90;;;8.52;100.00;99443.53;4977775;28;20030;-82
2021/11/04 09:28:43;;;;;;;78.05;30.60;;;7.30;99.90;;;8.55;100.00;99449.16;4978850;28;20085;-80
2021/11/04 09:31:10;;;;;;;75.88;30.83;;;7.40;99.90;;;8.54;100.00;99450.31;4977655;28;20027;-85
2021/11/04 09:33:38;;;;;;;79.35;31.90;;;7.40;99.90;;;8.67;100.00;99460.06;4978693;28;20027;-81
2021/11/04 09:36:05;;;;;;;71.95;29.10;;;7.40;99.90;;;8.68;100.00;99472.81;4961368;28;20058;-83
2021/11/04 09:38:33;;;;;;;79.22;31.52;;;7.50;99.90;;;8.55;100.00;99471.41;4976816;28;20085;-83
2021/11/04 09:41:00;;;;;;;70.38;29.98;;;7.50;99.90;;;8.67;100.00;99470.44;4977173;28;20027;-80
2021/11/04 09:43:27;;;;;;;75.95;29.98;;;7.50;99.90;;;8.74;100.00;99478.88;4977410;28;20030;-83
2021/11/04 09:45:54;;;;;;;72.45;30.15;;;7.50;99.90;;;8.74;100.00;99490.81;4977481;28;20042;-83
2021/11/04 09:48:19;;;;;;;64.88;29.98;;;7.50;99.90;;;8.73;100.00;99493.97;4960079;28;20038;-84
2021/11/04 09:50:45;;;;;;;73.20;29.98;;;7.50;99.90;;;8.69;100.00;99502.28;4978260;28;20290;-83
2021/11/04 09:53:11;;;;;;;74.45;28.50;;;7.50;99.90;;;8.59;100.00;99502.09;4979276;28;20069;-84
2021/11/04 09:55:38;;;;;;;69.22;29.65;;;7.50;99.90;;;8.69;100.00;99509.81;4978996;28;20153;-84
2021/11/04 09:58:04;;;;;;;65.72;29.95;;;7.50;99.90;;;8.64;100.00;99516.50;4978277;28;20036;-83
2021/11/04 10:00:41;;;;;;;68.70;28.13;;;7.40;99.90;;;8.65;100.00;99512.53;4977291;28;20102;-86
2021/11/04 10:03:16;;;;;;;62.15;28.05;;;7.50;99.90;;;8.68;100.00;99511.78;4977173;28;20066;-85
2021/11/04 10:05:53;;;;;;;64.57;26.25;;;7.40;99.90;;;8.68;100.00;99506.22;4977669;28;20033;-80
2021/11/04 10:08:39;;;;;;;71.25;30.70;;;7.50;99.90;;;8.66;100.00;99514.16;4980836;28;20053;-85
2021/11/04 10:11:13;;;;;;;62.88;28.15;;;7.40;99.90;;;8.65;100.00;99504.19;4997588;28;20516;-80
2021/11/04 10:13:41;;;;;;;58.00;26.30;;;7.40;99.90;;;8.69;100.00;99507.84;4980997;28;20050;-83
2021/11/04 10:16:11;;;;;;;57.03;25.75;;;7.40;99.90;;;8.77;100.00;99506.75;4981847;28;20149;-80
2021/11/04 10:18:51;;;;;;;61.55;27.23;;;7.50;99.90;;;8.76;100.00;99509.94;4996981;28;20045;-83
2021/11/04 10:21:42;;;;;;;70.78;29.20;;;7.50;99.90;;;8.79;100.00;99506.41;4996099;28;20057;-80